CheckWX is a tool to help pilots better visualize weather data.  It is not intended as a substitute for an official pre-flight weather briefing.

17:03:11 UTC

UKLI TAF
Ivano-Frankivsk International Airport
Ivano-Frankivsk, Ukraine
TAF UKLI 181401Z 1815/1824 06003MPS 9999 BKN030 TX25/1815Z TN19/1822Z TEMPO 1815/1820 VRB08G13MPS 2100 -TSRAGR BKN007 BKN015CB

Jun-18@
15:00 UTC

Jun-18 @ 15:00 UTC

Jun-19@
00:00 UTC

Jun-19 @ 00:00 UTC

TAF UKLI 181401Z 1815/1824 06003MPS 9999 BKN030 TX25/1815Z TN19/1822Z
Wind
  • 060° at 6 KTS
Cloud Levels
  • Broken at 3,000' AGL

Jun-18@
15:00 UTC

Jun-18 @ 15:00 UTC

Jun-18@
20:00 UTC

Jun-18 @ 20:00 UTC

TEMPO 1815/1820 VRB08G13MPS 2100 -TSRAGR BKN007 BKN015CB

Temporary

Temporary Changes expected for less than half the time period

Wind
  • Variable at 16 KTS
  • {Gusting to 25 KTS
Conditions
Light Thunderstorm, Light Rain, Light Thunderstorm, Light Hail
Cloud Levels
  • Broken at 700' AGL
  • Broken at 1,500' AGL